Time;durP1;ratioP1;P1;durP2;ratioP2;P2;SDS_P1;SDS_P2;PMS_P1;PMS_P2;Temp;Humidity;BMP_temperature;BMP_pressure;BME280_temperature;BME280_humidity;BME280_pressure;Samples;Min_cycle;Max_cycle;Signal;HPM_P1;HPM_P2
2023/07/16 06:43:36;;;;;;;;;8.75;8.50;;;;;18.41;54.11;101288.84;4877774;29;45561;-89
2023/07/16 06:46:02;;;;;;;;;10.75;8.50;;;;;18.43;53.84;101289.63;4864316;29;45294;-89
2023/07/16 06:48:27;;;;;;;;;13.50;7.25;;;;;18.45;54.05;101292.16;4881548;29;45526;-89
2023/07/16 06:50:53;;;;;;;;;8.25;8.25;;;;;18.45;53.80;101295.66;4883185;29;46358;-90
2023/07/16 06:53:18;;;;;;;;;12.25;9.00;;;;;18.43;54.10;101293.09;4864084;29;45623;-88
2023/07/16 06:55:43;;;;;;;;;13.50;11.00;;;;;18.50;54.04;101295.34;4880479;29;45477;-89
2023/07/16 06:58:11;;;;;;;;;8.75;7.50;;;;;18.53;53.74;101288.13;4864754;29;45612;-89
2023/07/16 07:00:36;;;;;;;;;10.75;9.00;;;;;18.57;54.04;101294.06;4864524;29;46915;-88
2023/07/16 07:03:02;;;;;;;;;9.50;9.50;;;;;18.60;54.02;101298.28;4865484;29;45392;-89
2023/07/16 07:05:27;;;;;;;;;15.75;9.50;;;;;18.65;54.22;101302.34;4872514;29;45296;-88
2023/07/16 07:07:52;;;;;;;;;8.50;8.25;;;;;18.70;53.76;101297.63;4871298;29;45681;-88
2023/07/16 07:10:18;;;;;;;;;11.00;9.00;;;;;18.76;53.55;101285.88;4865474;29;47108;-88
2023/07/16 07:12:43;;;;;;;;;12.75;8.50;;;;;18.81;53.29;101291.72;4882612;29;45483;-88
2023/07/16 07:15:09;;;;;;;;;9.00;8.75;;;;;18.87;53.07;101289.59;4864640;29;45517;-89
2023/07/16 07:17:35;;;;;;;;;10.25;8.75;;;;;18.90;53.17;101292.06;4880882;29;45667;-88
2023/07/16 07:20:01;;;;;;;;;9.00;7.67;;;;;18.91;53.25;101286.69;4865747;29;45837;-89
2023/07/16 07:22:26;;;;;;;;;11.25;8.00;;;;;18.96;53.28;101296.94;4864496;29;45392;-89
2023/07/16 07:24:51;;;;;;;;;14.33;8.33;;;;;19.01;52.85;101291.38;4881500;29;45904;-88
2023/07/16 07:27:17;;;;;;;;;12.00;8.50;;;;;19.02;53.01;101296.56;4865701;29;45553;-88
2023/07/16 07:29:42;;;;;;;;;7.67;6.33;;;;;19.10;53.10;101298.75;4882361;29;46076;-90
2023/07/16 07:32:08;;;;;;;;;8.33;6.00;;;;;19.16;52.48;101305.44;4853982;29;45480;-89
2023/07/16 07:34:33;;;;;;;;;8.00;8.00;;;;;19.22;52.29;101302.41;4864137;29;45532;-89
2023/07/16 07:36:58;;;;;;;;;10.00;8.00;;;;;19.26;52.31;101311.81;4863681;29;45653;-89
2023/07/16 07:39:24;;;;;;;;;6.00;6.00;;;;;19.31;52.09;101295.69;4866230;29;45854;-88
2023/07/16 07:41:49;;;;;;;;;9.33;7.33;;;;;19.36;51.94;101288.31;4870396;29;45503;-89
2023/07/16 07:44:14;;;;;;;;;10.00;7.33;;;;;19.45;51.90;101290.34;4869913;29;45362;-89
2023/07/16 07:46:40;;;;;;;;;5.67;4.00;;;;;19.52;51.61;101295.25;4877216;29;46088;-89
2023/07/16 07:49:05;;;;;;;;;8.33;7.33;;;;;19.60;51.74;101293.81;4874132;29;47048;-89
2023/07/16 07:51:31;;;;;;;;;7.00;7.00;;;;;19.69;51.41;101287.06;4872606;29;45461;-89
2023/07/16 07:53:56;;;;;;;;;5.67;5.00;;;;;19.74;51.76;101294.66;4879795;29;45259;-89
2023/07/16 07:56:21;;;;;;;;;6.00;6.00;;;;;19.84;51.36;101289.63;4876087;29;45787;-89
2023/07/16 07:58:47;;;;;;;;;9.67;6.67;;;;;19.90;50.99;101297.97;4875809;29;46407;-89
2023/07/16 08:01:12;;;;;;;;;7.33;7.00;;;;;19.99;51.00;101287.78;4893210;29;45396;-89
2023/07/16 08:03:37;;;;;;;;;7.67;5.33;;;;;20.08;50.85;101288.97;4879770;29;45272;-89
2023/07/16 08:06:03;;;;;;;;;6.50;6.00;;;;;20.17;50.53;101298.91;4879271;29;45582;-89
2023/07/16 08:08:28;;;;;;;;;11.33;5.33;;;;;20.24;49.48;101300.19;4878076;29;47172;-90
2023/07/16 08:10:55;;;;;;;;;7.33;5.67;;;;;20.27;49.30;101296.50;4879435;29;45477;-89
2023/07/16 08:13:20;;;;;;;;;5.67;5.67;;;;;20.30;49.25;101296.25;4882857;29;45307;-89
2023/07/16 08:15:48;;;;;;;;;5.67;5.00;;;;;20.37;49.31;101302.81;4879109;29;45593;-89
2023/07/16 08:18:13;;;;;;;;;6.75;6.50;;;;;20.43;49.01;101301.56;4882711;29;45552;-89
2023/07/16 08:20:40;;;;;;;;;7.00;6.33;;;;;20.48;48.80;101303.88;4868696;29;45323;-90
2023/07/16 08:23:06;;;;;;;;;10.33;6.67;;;;;20.51;48.74;101295.75;4880731;29;45441;-88
2023/07/16 08:25:31;;;;;;;;;7.00;7.00;;;;;20.55;48.40;101300.69;4880013;29;45532;-90
2023/07/16 08:27:57;;;;;;;;;9.00;7.33;;;;;20.62;48.32;101293.19;4880225;29;46850;-89
2023/07/16 08:30:22;;;;;;;;;7.33;5.00;;;;;20.69;48.43;101285.69;4872151;29;45504;-89
2023/07/16 08:32:47;;;;;;;;;8.67;6.67;;;;;20.83;48.83;101290.81;4865951;29;45239;-90
2023/07/16 08:35:16;;;;;;;;;7.75;6.75;;;;;20.91;47.74;101298.25;4880521;29;45588;-90
2023/07/16 08:37:45;;;;;;;;;5.75;5.75;;;;;21.02;47.04;101297.47;4879306;29;46039;-90
2023/07/16 08:40:12;;;;;;;;;4.00;4.00;;;;;21.08;47.12;101298.84;4878060;29;45568;-89
2023/07/16 08:42:39;;;;;;;;;5.67;5.00;;;;;21.11;46.52;101297.78;4879565;29;45365;-90
2023/07/16 08:45:07;;;;;;;;;7.00;4.67;;;;;21.13;46.56;101307.28;4877896;29;45616;-89
2023/07/16 08:47:34;;;;;;;;;6.00;6.00;;;;;21.18;45.96;101312.25;4879149;29;46270;-90
2023/07/16 08:50:00;;;;;;;;;7.00;6.00;;;;;21.26;45.85;101324.94;4880967;29;45612;-89
2023/07/16 08:52:27;;;;;;;;;9.33;6.33;;;;;21.30;45.87;101318.47;4881342;29;45407;-89
2023/07/16 08:54:53;;;;;;;;;7.67;5.00;;;;;21.35;45.44;101303.91;4888461;29;45393;-89
2023/07/16 08:57:20;;;;;;;;;7.00;5.33;;;;;21.47;45.47;101306.63;4880293;29;48151;-89
2023/07/16 08:59:48;;;;;;;;;8.67;6.33;;;;;21.56;45.28;101310.44;4880796;29;45415;-89
2023/07/16 09:02:17;;;;;;;;;6.00;6.00;;;;;21.66;45.10;101321.16;4880288;29;45473;-89
2023/07/16 09:04:42;;;;;;;;;4.33;4.00;;;;;21.70;44.83;101304.97;4880268;29;45294;-90
2023/07/16 09:07:07;;;;;;;;;5.00;5.00;;;;;21.74;44.54;101317.03;4878219;29;45579;-90
2023/07/16 09:09:33;;;;;;;;;5.33;4.00;;;;;21.79;44.20;101314.03;4893498;29;46030;-90
2023/07/16 09:11:58;;;;;;;;;3.00;3.00;;;;;21.81;44.24;101312.13;4880745;29;45336;-89
2023/07/16 09:14:24;;;;;;;;;6.00;4.00;;;;;21.91;43.94;101322.00;4879950;29;45633;-89
2023/07/16 09:17:01;;;;;;;;;5.33;4.33;;;;;22.02;44.30;101322.91;4870157;29;45903;-96
2023/07/16 09:19:33;;;;;;;;;3.33;2.67;;;;;22.14;43.99;101328.22;4892716;29;44856;-96
2023/07/16 09:22:09;;;;;;;;;5.00;4.33;;;;;22.22;43.44;101317.03;4891320;29;44848;-96
2023/07/16 09:24:38;;;;;;;;;9.00;5.00;;;;;22.27;42.99;101334.25;4896210;28;44881;-95
2023/07/16 09:27:04;;;;;;;;;4.00;4.00;;;;;22.20;42.90;101311.84;4863037;29;46797;-96
2023/07/16 09:29:41;;;;;;;;;4.00;4.00;;;;;22.28;42.78;101321.88;4863518;29;45479;-96
2023/07/16 09:32:09;;;;;;;;;3.33;3.00;;;;;22.29;43.25;101310.31;4865004;29;45151;-96
2023/07/16 10:06:08;;;;;;;;;7.00;5.00;;;;;22.70;42.19;101334.59;2763631;23;47033;-95
2023/07/16 10:08:36;;;;;;;;;4.67;3.33;;;;;22.68;41.18;101334.72;4883864;29;46318;-95
2023/07/16 10:11:02;;;;;;;;;3.00;3.00;;;;;22.71;40.76;101325.66;4892592;29;45607;-95
2023/07/16 10:13:28;;;;;;;;;4.67;3.67;;;;;22.74;41.52;101317.47;4897863;29;45415;-95
2023/07/16 10:16:03;;;;;;;;;2.67;2.33;;;;;22.72;40.91;101332.66;4876875;29;45258;-95
2023/07/16 10:18:31;;;;;;;;;4.33;3.33;;;;;22.73;40.60;101310.47;4901465;28;44877;-95
2023/07/16 10:21:01;;;;;;;;;5.00;4.00;;;;;22.81;40.63;101321.31;4899858;29;45675;-96
2023/07/16 10:23:37;;;;;;;;;6.67;4.67;;;;;22.85;40.97;101316.63;4911516;28;45554;-93
2023/07/16 10:26:10;;;;;;;;;6.00;4.50;;;;;22.86;40.94;101302.38;4895455;28;45346;-96
2023/07/16 10:28:37;;;;;;;;;6.75;3.75;;;;;23.01;40.65;101320.72;4875254;29;45582;-94
2023/07/16 10:31:02;;;;;;;;;4.75;2.50;;;;;23.09;40.53;101312.97;4877078;29;46537;-95
2023/07/16 10:33:28;;;;;;;;;5.00;4.00;;;;;23.27;40.23;101315.13;4904398;28;45457;-96
2023/07/16 10:35:57;;;;;;;;;5.00;4.67;;;;;23.38;40.84;101315.13;4912396;29;45388;-95
2023/07/16 10:38:25;;;;;;;;;3.67;3.67;;;;;23.52;40.83;101313.97;4910465;29;45330;-96
2023/07/16 10:40:51;;;;;;;;;3.00;3.00;;;;;23.64;40.25;101303.31;4894707;29;45635;-95
2023/07/16 10:43:17;;;;;;;;;5.33;4.00;;;;;23.85;40.58;101306.84;4886873;29;45469;-94
2023/07/16 10:45:42;;;;;;;;;2.50;2.50;;;;;23.99;39.99;101296.84;4885668;29;45429;-94
2023/07/16 10:48:08;;;;;;;;;4.50;1.75;;;;;24.26;39.98;101301.66;4912229;28;45537;-94
2023/07/16 10:50:34;;;;;;;;;3.00;2.67;;;;;24.47;39.39;101297.25;4872189;29;45828;-96
2023/07/16 10:53:01;;;;;;;;;4.67;3.00;;;;;24.71;38.89;101294.28;4901525;29;45482;-93
2023/07/16 10:55:28;;;;;;;;;4.33;2.67;;;;;24.92;38.87;101283.59;4903672;29;45568;-93
2023/07/16 10:57:53;;;;;;;;;3.75;2.25;;;;;25.16;38.24;101285.03;4901884;29;45627;-95
2023/07/16 11:00:21;;;;;;;;;4.25;3.25;;;;;25.35;37.54;101292.22;4887418;29;45544;-95
2023/07/16 11:02:47;;;;;;;;;3.00;3.00;;;;;25.47;36.55;101290.22;4893439;29;45615;-94
2023/07/16 11:05:16;;;;;;;;;4.00;3.33;;;;;25.58;36.97;101277.78;4888470;29;45320;-93
2023/07/16 11:07:49;;;;;;;;;3.00;2.00;;;;;25.71;36.46;101288.16;4898756;28;45606;-96
2023/07/16 11:10:21;;;;;;;;;2.00;2.00;;;;;25.83;36.24;101287.00;4912662;28;45784;-95
2023/07/16 11:12:54;;;;;;;;;2.33;1.33;;;;;25.96;36.19;101281.38;4928698;28;45569;-94
2023/07/16 11:15:34;;;;;;;;;2.33;1.33;;;;;25.99;35.30;101280.25;4925283;28;44848;-94
2023/07/16 11:18:00;;;;;;;;;4.00;3.00;;;;;26.04;35.25;101277.16;4927264;28;45382;-95
2023/07/16 11:20:25;;;;;;;;;4.33;2.00;;;;;26.02;35.53;101277.31;4926307;28;45563;-95
2023/07/16 11:22:51;;;;;;;;;6.00;2.33;;;;;26.05;35.20;101279.69;4917548;28;45320;-94
2023/07/16 11:25:17;;;;;;;;;6.00;4.00;;;;;26.05;35.08;101277.00;4923933;28;45464;-96
2023/07/16 11:27:43;;;;;;;;;4.33;1.67;;;;;26.11;34.64;101267.59;4928773;28;45675;-96
2023/07/16 11:30:09;;;;;;;;;3.00;3.00;;;;;26.26;34.93;101281.34;4924292;28;45770;-95
2023/07/16 11:32:46;;;;;;;;;6.00;3.33;;;;;26.42;34.53;101270.03;4919143;28;45414;-93
2023/07/16 11:35:17;;;;;;;;;5.67;4.00;;;;;26.61;35.31;101273.63;4921855;28;45346;-93
2023/07/16 11:37:45;;;;;;;;;7.75;4.00;;;;;26.79;34.67;101271.81;4924040;28;44984;-96
2023/07/16 11:40:18;;;;;;;;;4.25;3.00;;;;;26.85;33.39;101275.75;4928962;28;45838;-94
2023/07/16 11:42:44;;;;;;;;;4.33;4.00;;;;;26.87;33.58;101284.44;4924686;28;45409;-96
2023/07/16 11:45:17;;;;;;;;;1.00;1.00;;;;;26.85;33.94;101281.06;4928095;28;45454;-95
2023/07/16 11:47:44;;;;;;;;;5.33;3.00;;;;;26.75;33.14;101282.97;4931038;28;45448;-95
2023/07/16 11:50:10;;;;;;;;;5.00;2.33;;;;;26.64;33.39;101276.81;4927503;28;45662;-92
2023/07/16 11:52:35;;;;;;;;;3.67;2.33;;;;;26.58;33.22;101266.75;4946037;28;45039;-93
2023/07/16 11:55:01;;;;;;;;;3.67;3.00;;;;;26.59;33.64;101273.75;4940833;28;45525;-95
2023/07/16 11:57:27;;;;;;;;;4.00;2.00;;;;;26.57;33.25;101267.75;4919045;28;45857;-94
2023/07/16 11:59:52;;;;;;;;;3.00;2.67;;;;;26.45;33.09;101266.22;4915033;28;45971;-94
2023/07/16 12:02:21;;;;;;;;;4.00;3.00;;;;;26.35;33.01;101275.13;4924031;28;45530;-95
2023/07/16 12:04:49;;;;;;;;;3.00;2.33;;;;;26.18;33.27;101276.69;4915426;28;45529;-95
2023/07/16 12:07:14;;;;;;;;;3.67;2.67;;;;;26.00;33.24;101282.78;4934565;28;46349;-93
2023/07/16 12:09:40;;;;;;;;;4.00;3.67;;;;;25.91;33.70;101267.63;4906929;28;45579;-94
2023/07/16 12:12:06;;;;;;;;;2.50;1.75;;;;;25.96;33.49;101267.22;4904624;28;44877;-94
2023/07/16 12:14:32;;;;;;;;;3.00;3.00;;;;;26.01;33.69;101264.97;4911444;28;45441;-95
2023/07/16 12:17:10;;;;;;;;;5.00;4.33;;;;;25.99;32.84;101265.09;4930014;28;44848;-95
2023/07/16 12:19:36;;;;;;;;;3.00;2.33;;;;;25.96;32.78;101269.91;4927755;28;45966;-95
2023/07/16 12:22:04;;;;;;;;;6.00;4.00;;;;;25.98;33.03;101260.78;4925957;28;44903;-96
2023/07/16 12:24:30;;;;;;;;;5.00;3.00;;;;;26.08;32.71;101273.22;4941642;28;45463;-95
2023/07/16 12:26:55;;;;;;;;;4.67;4.00;;;;;26.22;33.22;101269.25;4941755;28;44936;-94
2023/07/16 12:29:20;;;;;;;;;4.00;4.00;;;;;26.42;32.70;101260.22;4930252;28;45720;-96
2023/07/16 12:31:46;;;;;;;;;3.33;1.67;;;;;26.65;32.70;101269.63;4922434;28;45434;-96
2023/07/16 12:34:11;;;;;;;;;4.33;3.33;;;;;26.81;32.11;101275.16;4930204;28;45523;-96
2023/07/16 12:36:37;;;;;;;;;4.33;3.33;;;;;26.84;31.27;101268.69;4926303;28;45473;-93
2023/07/16 12:39:02;;;;;;;;;5.33;4.00;;;;;26.76;31.45;101261.44;4939587;28;45587;-96
2023/07/16 12:41:27;;;;;;;;;4.67;4.00;;;;;26.65;31.07;101275.84;4917233;28;44843;-96
2023/07/16 12:43:53;;;;;;;;;5.33;3.67;;;;;26.59;31.70;101270.25;4934585;28;45427;-94
2023/07/16 12:46:18;;;;;;;;;4.00;4.00;;;;;26.56;31.77;101274.03;4920307;28;44888;-95
2023/07/16 12:48:44;;;;;;;;;4.33;3.00;;;;;26.45;31.38;101279.56;4917619;28;45901;-95
2023/07/16 12:51:09;;;;;;;;;6.00;3.33;;;;;26.41;31.63;101284.38;4931692;28;45322;-96
2023/07/16 12:53:35;;;;;;;;;6.00;3.67;;;;;26.30;31.33;101277.41;4927325;28;46275;-95
2023/07/16 12:56:00;;;;;;;;;4.00;4.00;;;;;26.35;31.21;101285.81;4912904;28;45311;-95
2023/07/16 12:58:26;;;;;;;;;4.67;4.67;;;;;26.44;31.30;101276.09;4921671;28;45608;-95
2023/07/16 13:00:51;;;;;;;;;3.33;3.33;;;;;26.57;31.77;101283.75;4918854;28;44862;-95
2023/07/16 13:03:17;;;;;;;;;7.25;5.00;;;;;26.68;31.91;101288.03;4924196;28;45388;-96
2023/07/16 13:05:44;;;;;;;;;5.00;4.50;;;;;26.75;31.28;101277.63;4926946;28;45341;-96
2023/07/16 13:08:10;;;;;;;;;5.00;3.75;;;;;26.86;31.59;101281.91;4912474;28;45614;-94
2023/07/16 13:10:36;;;;;;;;;4.00;3.67;;;;;26.88;31.52;101270.09;4919447;28;45443;-95
2023/07/16 13:13:03;;;;;;;;;7.00;6.25;;;;;27.07;31.39;101274.47;4917710;28;45314;-95
2023/07/16 13:15:32;;;;;;;;;4.00;4.00;;;;;27.24;31.21;101279.13;4923690;28;44884;-94
2023/07/16 13:17:57;;;;;;;;;6.00;6.00;;;;;27.38;31.01;101273.28;4909259;28;45945;-96
2023/07/16 13:20:25;;;;;;;;;4.33;3.67;;;;;27.49;30.98;101272.19;4921768;28;44858;-96
2023/07/16 13:22:51;;;;;;;;;6.00;4.33;;;;;27.63;30.43;101278.00;4915012;28;45469;-92
2023/07/16 13:25:16;;;;;;;;;5.00;3.33;;;;;27.66;29.69;101273.19;4913407;28;45526;-96
2023/07/16 13:27:42;;;;;;;;;4.67;3.00;;;;;27.71;30.51;101262.88;4932632;28;45538;-93
2023/07/16 13:30:08;;;;;;;;;4.67;4.33;;;;;27.70;30.14;101263.88;4916840;28;45326;-95
2023/07/16 13:32:34;;;;;;;;;8.00;5.00;;;;;27.77;30.13;101264.06;4914077;28;45505;-92
2023/07/16 13:35:00;;;;;;;;;3.00;3.00;;;;;27.93;29.97;101262.50;4927659;28;45191;-93
2023/07/16 13:37:25;;;;;;;;;5.67;5.00;;;;;28.04;30.14;101254.22;4921368;28;45560;-92
2023/07/16 13:39:50;;;;;;;;;4.67;3.33;;;;;28.14;29.86;101257.63;4917293;28;45559;-93
2023/07/16 13:42:16;;;;;;;;;7.67;4.00;;;;;28.21;29.65;101251.63;4912898;28;45319;-94
2023/07/16 13:44:41;;;;;;;;;4.33;3.00;;;;;28.26;29.56;101241.31;4933833;28;45307;-94
2023/07/16 13:47:07;;;;;;;;;5.67;3.33;;;;;28.32;29.45;101238.00;4912984;28;48311;-94
2023/07/16 13:49:32;;;;;;;;;3.67;3.67;;;;;28.38;29.26;101239.22;4923771;28;45338;-95
2023/07/16 13:51:57;;;;;;;;;4.33;4.33;;;;;28.43;29.05;101244.06;4916694;28;45248;-93
2023/07/16 13:54:23;;;;;;;;;3.33;3.33;;;;;28.48;29.29;101253.31;4916043;28;45530;-96
2023/07/16 13:56:49;;;;;;;;;5.00;4.33;;;;;28.46;28.92;101243.75;4932016;28;46522;-95
2023/07/16 13:59:15;;;;;;;;;6.00;3.67;;;;;28.53;28.90;101253.66;4947579;28;44837;-94
2023/07/16 14:01:41;;;;;;;;;3.67;3.67;;;;;28.52;29.23;101243.94;4952397;28;44823;-94
2023/07/16 14:04:07;;;;;;;;;4.00;4.00;;;;;28.58;29.21;101261.19;4926775;28;45582;-93
2023/07/16 14:06:33;;;;;;;;;6.00;5.00;;;;;28.53;29.27;101252.81;4977954;28;46994;-95
2023/07/16 14:08:59;;;;;;;;;4.00;4.00;;;;;28.46;28.89;101265.16;4938853;28;44871;-93
2023/07/16 14:11:25;;;;;;;;;4.00;4.00;;;;;28.31;29.11;101260.41;4946081;28;44793;-94
2023/07/16 14:13:53;;;;;;;;;5.33;4.33;;;;;28.31;28.78;101284.50;4929097;28;44837;-95
2023/07/16 14:16:20;;;;;;;;;6.00;4.00;;;;;28.18;29.46;101271.50;4927077;28;45814;-94
2023/07/16 14:18:51;;;;;;;;;4.67;4.00;;;;;28.18;29.03;101271.50;4917225;29;44807;-94
2023/07/16 14:21:19;;;;;;;;;7.00;4.67;;;;;28.21;28.87;101268.53;4912966;29;45228;-96
2023/07/16 14:23:45;;;;;;;;;5.00;3.00;;;;;28.17;29.26;101277.88;4911789;29;44896;-93
2023/07/16 14:26:11;;;;;;;;;3.67;3.00;;;;;28.14;29.13;101273.66;4925067;28;45616;-94
2023/07/16 14:28:37;;;;;;;;;3.33;3.33;;;;;28.10;28.65;101268.81;4912379;29;45363;-95
2023/07/16 14:31:02;;;;;;;;;3.33;3.33;;;;;28.03;28.28;101265.09;4909611;29;45092;-95
2023/07/16 14:33:31;;;;;;;;;3.33;3.33;;;;;28.00;28.16;101268.94;4908695;29;45018;-95
2023/07/16 14:35:57;;;;;;;;;4.33;4.33;;;;;27.91;28.40;101264.50;4908349;29;45727;-95
2023/07/16 14:38:23;;;;;;;;;1.00;0.00;;;;;27.83;28.61;101263.47;4923675;28;45312;-94
2023/07/16 14:40:50;;;;;;;;;4.67;3.33;;;;;27.80;28.59;101262.91;4911233;29;45336;-94
2023/07/16 14:43:15;;;;;;;;;3.67;3.33;;;;;27.79;28.35;101248.72;4922351;28;45438;-95
2023/07/16 14:45:41;;;;;;;;;5.00;3.33;;;;;27.74;28.71;101251.03;4928995;28;45388;-95
2023/07/16 14:48:06;;;;;;;;;3.00;3.00;;;;;27.70;29.10;101244.31;4932112;28;45363;-95
2023/07/16 14:50:32;;;;;;;;;4.00;3.00;;;;;27.67;29.14;101248.13;4926818;28;45364;-94
2023/07/16 14:52:57;;;;;;;;;4.33;4.33;;;;;27.65;28.72;101247.47;4931239;28;45439;-94
2023/07/16 14:55:23;;;;;;;;;4.00;4.00;;;;;27.55;28.62;101250.22;4958895;28;45656;-94
2023/07/16 14:57:50;;;;;;;;;3.00;3.00;;;;;27.52;29.15;101239.81;4941993;28;45406;-94
2023/07/16 15:00:16;;;;;;;;;3.00;3.00;;;;;27.54;28.64;101243.16;4924140;28;45357;-93
2023/07/16 15:02:42;;;;;;;;;3.33;3.33;;;;;27.50;28.91;101232.94;4908078;28;44776;-95
2023/07/16 15:05:08;;;;;;;;;20.00;18.67;;;;;27.53;28.90;101230.78;4926682;28;45651;-94
2023/07/16 15:07:38;;;;;;;;;4.67;4.33;;;;;27.57;29.00;101216.13;4932895;28;45326;-95
2023/07/16 15:10:04;;;;;;;;;2.67;2.00;;;;;27.56;28.68;101226.97;4921664;28;45390;-94
2023/07/16 15:12:30;;;;;;;;;5.67;4.00;;;;;27.59;28.78;101240.06;4906685;28;45349;-95
2023/07/16 15:14:56;;;;;;;;;2.00;2.00;;;;;27.48;28.01;101228.59;4929368;28;45833;-93
2023/07/16 15:17:23;;;;;;;;;15.25;14.25;;;;;27.37;28.53;101228.84;4918078;28;44810;-94
2023/07/16 15:19:51;;;;;;;;;2.67;2.67;;;;;27.26;28.44;101223.75;4917844;28;44679;-94
2023/07/16 15:22:20;;;;;;;;;3.67;2.33;;;;;27.17;28.74;101214.81;4930397;28;45328;-95
2023/07/16 15:24:45;;;;;;;;;6.00;3.67;;;;;27.14;29.04;101213.28;4936217;28;45748;-94
2023/07/16 15:27:11;;;;;;;;;3.00;3.00;;;;;27.21;29.39;101214.34;4909010;28;45373;-93
2023/07/16 15:29:36;;;;;;;;;4.33;4.33;;;;;27.23;29.06;101211.53;4911415;28;45446;-93
2023/07/16 15:32:02;;;;;;;;;4.00;4.00;;;;;27.25;28.52;101214.06;4909342;28;45304;-93
2023/07/16 15:34:27;;;;;;;;;3.67;3.67;;;;;27.21;28.60;101206.34;4918314;28;47130;-93
2023/07/16 15:36:53;;;;;;;;;3.00;3.00;;;;;27.30;28.78;101209.09;4931619;28;45327;-94
2023/07/16 15:39:24;;;;;;;;;3.00;3.00;;;;;27.26;29.23;101205.88;4907334;28;45397;-95
2023/07/16 15:41:50;;;;;;;;;5.00;3.67;;;;;27.26;28.90;101202.38;4925134;28;45544;-96
2023/07/16 15:44:16;;;;;;;;;6.50;3.50;;;;;27.20;28.33;101199.31;4907260;28;45845;-93
2023/07/16 15:46:42;;;;;;;;;3.67;3.67;;;;;27.15;29.01;101190.09;4911280;28;45411;-94
2023/07/16 15:49:07;;;;;;;;;3.67;3.33;;;;;27.16;28.65;101183.78;4921573;28;45292;-94
2023/07/16 15:51:36;;;;;;;;;5.33;3.67;;;;;27.16;28.94;101202.47;4922430;28;45295;-96
2023/07/16 15:54:01;;;;;;;;;2.00;2.00;;;;;27.11;28.46;101194.06;4931554;28;46640;-94
2023/07/16 15:56:27;;;;;;;;;5.00;4.00;;;;;27.05;28.85;101187.50;4928423;28;44836;-95
2023/07/16 15:58:53;;;;;;;;;4.00;4.00;;;;;27.06;28.03;101192.69;4930351;28;45414;-94
2023/07/16 16:01:18;;;;;;;;;4.00;2.00;;;;;27.10;28.56;101195.91;4922213;28;45365;-93
2023/07/16 16:03:44;;;;;;;;;3.33;2.67;;;;;27.10;27.92;101198.56;4905736;28;45435;-94
2023/07/16 16:06:09;;;;;;;;;5.67;3.00;;;;;27.08;28.63;101196.03;4908614;28;45406;-95
2023/07/16 16:08:36;;;;;;;;;4.00;2.67;;;;;27.05;28.59;101192.84;4919238;28;45347;-95
2023/07/16 16:11:02;;;;;;;;;3.00;3.00;;;;;27.01;28.67;101186.97;4913778;28;45502;-94
2023/07/16 16:13:29;;;;;;;;;2.67;2.00;;;;;26.99;28.73;101186.28;4929408;28;45743;-95
2023/07/16 16:15:55;;;;;;;;;2.33;2.33;;;;;27.04;28.86;101194.66;4917007;28;45174;-94
2023/07/16 16:18:22;;;;;;;;;4.00;3.33;;;;;27.10;29.02;101197.72;4921371;28;45400;-94
2023/07/16 16:20:48;;;;;;;;;2.00;2.00;;;;;27.10;28.40;101187.88;4912820;28;46329;-93
2023/07/16 16:23:14;;;;;;;;;3.00;3.00;;;;;27.07;28.89;101185.50;4911531;28;45979;-93
2023/07/16 16:25:40;;;;;;;;;4.67;3.00;;;;;27.10;28.76;101195.91;4911051;28;45510;-94
2023/07/16 16:28:07;;;;;;;;;3.00;2.00;;;;;27.07;28.75;101182.84;4926658;28;45508;-93
2023/07/16 16:30:34;;;;;;;;;3.33;2.00;;;;;27.10;29.27;101182.53;4914413;28;45319;-93
2023/07/16 16:33:02;;;;;;;;;3.00;1.33;;;;;27.15;29.22;101185.59;4925854;28;46220;-94
2023/07/16 16:35:33;;;;;;;;;0.00;0.00;;;;;27.03;28.57;101189.50;4925527;28;44927;-94
2023/07/16 16:37:59;;;;;;;;;4.33;2.00;;;;;26.96;28.95;101181.25;4914813;28;45604;-93
2023/07/16 16:40:24;;;;;;;;;2.00;2.00;;;;;26.93;29.50;101181.53;4915447;28;45352;-94
2023/07/16 16:42:53;;;;;;;;;2.67;1.33;;;;;26.91;28.78;101179.03;4899957;28;47626;-93
2023/07/16 16:45:19;;;;;;;;;1.67;1.33;;;;;26.93;28.92;101176.19;4918959;28;45363;-94
2023/07/16 16:47:46;;;;;;;;;1.33;1.33;;;;;26.95;28.79;101184.91;4915698;28;45375;-96
2023/07/16 16:50:14;;;;;;;;;4.67;2.00;;;;;26.98;29.03;101192.59;4917150;28;45609;-93
2023/07/16 16:52:41;;;;;;;;;1.00;1.00;;;;;26.86;28.64;101180.44;4909500;28;45673;-94
2023/07/16 16:55:07;;;;;;;;;2.00;1.00;;;;;26.83;28.74;101180.78;4906192;28;45391;-93
2023/07/16 16:57:33;;;;;;;;;0.67;0.67;;;;;26.75;29.32;101177.00;4907489;28;45396;-96
2023/07/16 16:59:59;;;;;;;;;1.33;1.00;;;;;26.74;29.25;101187.88;4915447;28;45632;-95
2023/07/16 17:02:27;;;;;;;;;1.33;1.00;;;;;26.63;28.67;101173.75;4919064;28;45570;-94
2023/07/16 17:04:55;;;;;;;;;2.00;1.33;;;;;26.58;28.95;101183.16;4913264;28;45430;-95
2023/07/16 17:10:34;;;;;;;;;1.33;1.33;;;;;26.53;29.26;101186.31;954467;23;46273;-91
2023/07/16 17:13:03;;;;;;;;;3.00;3.00;;;;;26.47;29.73;101192.25;4901203;28;46993;-96
2023/07/16 17:15:28;;;;;;;;;5.00;3.67;;;;;26.41;29.66;101199.00;4904249;28;45608;-95
2023/07/16 17:17:54;;;;;;;;;2.00;2.00;;;;;26.38;29.53;101205.47;4908307;28;45645;-96
2023/07/16 17:20:19;;;;;;;;;2.00;2.00;;;;;26.32;30.08;101195.41;4904595;28;46025;-95
2023/07/16 17:22:45;;;;;;;;;3.33;2.00;;;;;26.31;29.91;101201.72;4910913;28;45539;-94
2023/07/16 17:25:12;;;;;;;;;2.00;1.00;;;;;26.25;29.83;101203.13;4923997;28;45528;-96
2023/07/16 17:27:38;;;;;;;;;4.00;2.00;;;;;26.23;30.08;101205.13;4915756;28;45509;-96
2023/07/16 17:30:04;;;;;;;;;3.00;1.33;;;;;26.21;29.96;101217.75;4916580;28;44908;-96
2023/07/16 17:32:31;;;;;;;;;1.00;1.00;;;;;26.17;30.18;101208.34;4920985;28;47210;-95
2023/07/16 17:34:56;;;;;;;;;2.00;1.33;;;;;26.12;30.35;101208.81;4915128;28;45460;-96
2023/07/16 17:37:22;;;;;;;;;3.00;1.67;;;;;26.11;30.19;101203.59;4913663;28;45575;-95
2023/07/16 17:39:48;;;;;;;;;2.00;2.00;;;;;26.04;30.34;101205.16;4926977;28;45450;-95
2023/07/16 17:42:15;;;;;;;;;1.33;1.33;;;;;25.98;30.73;101219.94;4926183;28;47200;-94
2023/07/16 17:44:41;;;;;;;;;2.00;1.00;;;;;25.95;30.26;101213.06;4907702;28;45488;-95
2023/07/16 17:47:06;;;;;;;;;4.00;2.00;;;;;25.91;30.71;101213.50;4907715;28;45578;-95
2023/07/16 17:49:32;;;;;;;;;2.00;2.00;;;;;25.85;30.51;101215.75;4917852;28;45359;-96
2023/07/16 17:51:57;;;;;;;;;1.33;1.00;;;;;25.80;30.55;101217.16;4906564;28;46851;-96
2023/07/16 17:54:23;;;;;;;;;2.00;1.00;;;;;25.73;31.16;101212.41;4912932;28;45452;-94
2023/07/16 17:56:51;;;;;;;;;3.25;2.50;;;;;25.68;30.49;101217.31;4927589;28;45578;-94
2023/07/16 17:59:19;;;;;;;;;6.00;5.00;;;;;25.64;30.61;101223.91;4903077;28;45259;-96
2023/07/16 18:01:46;;;;;;;;;5.33;3.67;;;;;25.62;30.69;101228.56;4906451;28;48211;-94
2023/07/16 18:04:12;;;;;;;;;2.33;1.00;;;;;25.59;31.40;101227.03;4927899;28;45478;-95
2023/07/16 18:06:37;;;;;;;;;1.75;1.75;;;;;25.59;31.56;101234.19;4913904;28;44904;-94
2023/07/16 18:09:05;;;;;;;;;2.00;2.00;;;;;25.58;31.37;101230.69;4911919;28;46790;-95
2023/07/16 18:11:30;;;;;;;;;3.00;1.33;;;;;25.54;31.08;101233.78;4913210;28;47341;-94
2023/07/16 18:13:56;;;;;;;;;5.33;5.00;;;;;25.49;31.15;101236.81;4914730;28;45514;-94
2023/07/16 18:16:22;;;;;;;;;5.50;4.75;;;;;25.45;31.18;101240.72;4927052;28;45563;-95
2023/07/16 18:18:47;;;;;;;;;9.00;7.25;;;;;25.42;31.46;101246.38;4912872;28;45393;-96
2023/07/16 18:21:12;;;;;;;;;4.75;3.00;;;;;25.35;31.06;101249.59;4935103;28;47406;-95
2023/07/16 18:23:38;;;;;;;;;3.67;3.00;;;;;25.28;31.51;101245.81;4914514;28;45561;-93
2023/07/16 18:26:04;;;;;;;;;3.50;2.00;;;;;25.24;31.69;101247.06;4915689;28;45544;-94
2023/07/16 18:28:30;;;;;;;;;1.50;1.00;;;;;25.19;31.20;101236.00;4912604;28;45889;-94
2023/07/16 18:30:56;;;;;;;;;3.00;1.75;;;;;25.19;31.41;101244.81;4907385;28;47036;-94
2023/07/16 18:33:22;;;;;;;;;2.00;1.00;;;;;25.19;31.79;101251.97;4916122;28;45501;-95
2023/07/16 18:35:49;;;;;;;;;2.00;1.00;;;;;25.15;31.79;101251.41;4916024;28;45510;-96
2023/07/16 18:38:15;;;;;;;;;2.00;2.00;;;;;25.17;31.78;101252.09;4935180;28;45015;-95